Terminal Aerodrome Forecast
Issued by NWS

Home | Current Version | Previous Version | Text Only | Print | Product List | Glossary On
Versions: 1 2 3 4 5 6 7 8 9 10 11 12 13
000
FTUS42 KTBW 220500
TAFPGD
TAF
KPGD 220534Z 2206/2306 VRB03KT P6SM SCT130 BKN250
     FM221400 VRB03KT P6SM SCT025 BKN250
     FM221700 28006KT P6SM VCTS SCT035CB SCT100 BKN250
     FM230200 VRB03KT P6SM SCT035 BKN150=

USA.gov is the U.S. government's official web portal to all federal, state and local government web resources and services.